createdAt,value
2022-10-26T00:01:06.958Z,7.47
2022-10-26T00:03:34.850Z,4.50
2022-10-26T00:06:16.938Z,5.93
2022-10-26T00:08:44.386Z,3.83
2022-10-26T00:11:11.851Z,4.80
2022-10-26T00:13:39.835Z,5.95
2022-10-26T00:16:28.146Z,4.85
2022-10-26T00:18:55.062Z,5.15
2022-10-26T00:21:21.849Z,5.55
2022-10-26T00:23:48.539Z,5.43
2022-10-26T00:26:15.311Z,6.50
2022-10-26T00:28:42.118Z,8.30
2022-10-26T00:31:15.534Z,10.73
2022-10-26T00:33:42.384Z,5.22
2022-10-26T00:36:10.199Z,6.13
2022-10-26T00:38:37.546Z,5.90
2022-10-26T00:41:04.661Z,5.25
2022-10-26T00:43:31.350Z,3.42
2022-10-26T00:45:58.673Z,4.82
2022-10-26T00:48:34.688Z,5.10
2022-10-26T00:51:03.700Z,6.55
2022-10-26T00:53:30.622Z,5.10
2022-10-26T00:55:57.794Z,4.00
2022-10-26T00:58:25.194Z,4.63
2022-10-26T01:00:52.446Z,4.75
2022-10-26T01:03:19.941Z,6.05
2022-10-26T01:05:47.861Z,5.22
2022-10-26T01:08:16.118Z,3.72
2022-10-26T01:13:10.348Z,5.32
2022-10-26T01:16:19.161Z,5.78
2022-10-26T01:19:15.084Z,3.05
2022-10-26T01:21:48.919Z,5.05
2022-10-26T01:24:27.660Z,6.18
2022-10-26T01:27:20.917Z,5.47
2022-10-26T01:30:12.440Z,3.58
2022-10-26T01:32:53.037Z,5.40
2022-10-26T01:35:27.838Z,3.63
2022-10-26T01:38:05.479Z,5.88
2022-10-26T01:40:40.744Z,2.47
2022-10-26T01:43:09.200Z,2.85
2022-10-26T01:45:38.211Z,3.13
2022-10-26T01:48:05.509Z,3.17
2022-10-26T01:50:32.483Z,3.97
2022-10-26T01:52:59.479Z,3.97
2022-10-26T01:55:54.842Z,8.45
2022-10-26T01:58:50.492Z,2.38
2022-10-26T02:01:42.458Z,4.68
2022-10-26T02:04:18.237Z,4.40
2022-10-26T02:07:07.039Z,2.63
2022-10-26T02:10:06.013Z,3.97
2022-10-26T02:12:35.567Z,3.35
2022-10-26T02:15:11.373Z,3.03
2022-10-26T02:17:56.560Z,2.60
2022-10-26T02:20:29.242Z,4.00
2022-10-26T02:22:56.289Z,5.20
2022-10-26T02:25:28.057Z,5.57
2022-10-26T02:28:08.043Z,4.43
2022-10-26T02:30:35.883Z,4.32
2022-10-26T02:33:03.664Z,4.70
2022-10-26T02:35:33.592Z,5.43
2022-10-26T02:38:02.041Z,3.47
2022-10-26T02:40:29.947Z,2.03
2022-10-26T02:42:59.961Z,4.03
2022-10-26T02:45:29.191Z,3.67
2022-10-26T02:47:56.441Z,7.15
2022-10-26T02:50:28.421Z,3.97
2022-10-26T02:53:04.366Z,2.50
2022-10-26T02:55:36.694Z,3.70
2022-10-26T02:58:08.432Z,2.05
2022-10-26T03:00:35.264Z,5.65
2022-10-26T03:03:03.655Z,5.68
2022-10-26T03:05:32.726Z,4.30
2022-10-26T03:08:00.513Z,7.78
2022-10-26T03:10:27.426Z,5.22
2022-10-26T03:12:54.207Z,3.85
2022-10-26T03:15:21.510Z,7.47
2022-10-26T03:17:48.570Z,6.15
2022-10-26T03:20:15.736Z,6.32
2022-10-26T03:22:42.549Z,8.48
2022-10-26T03:27:36.281Z,7.80
2022-10-26T03:30:03.366Z,5.10
2022-10-26T03:32:30.061Z,7.82
2022-10-26T03:34:56.796Z,4.85
2022-10-26T03:37:23.539Z,7.07
2022-10-26T03:39:50.279Z,5.50
2022-10-26T03:42:17.030Z,4.47
2022-10-26T03:44:43.827Z,5.78
2022-10-26T03:47:10.523Z,7.22
2022-10-26T03:49:37.241Z,6.78
2022-10-26T03:52:04.625Z,6.43
2022-10-26T03:54:31.499Z,11.52
2022-10-26T03:56:58.239Z,10.10
2022-10-26T03:59:24.979Z,8.77
2022-10-26T04:01:54.174Z,8.70
2022-10-26T04:04:23.848Z,6.82
2022-10-26T04:06:50.684Z,7.60
2022-10-26T04:09:17.438Z,6.00
2022-10-26T04:11:44.204Z,11.55
2022-10-26T04:14:10.980Z,5.97
2022-10-26T04:16:37.781Z,7.68
2022-10-26T04:19:04.542Z,7.82
2022-10-26T04:21:33.387Z,7.32
2022-10-26T04:24:00.171Z,12.50
2022-10-26T04:26:27.169Z,5.90
2022-10-26T04:28:54.006Z,5.10
2022-10-26T04:31:20.716Z,6.65
2022-10-26T04:33:47.460Z,6.25
2022-10-26T04:36:14.151Z,5.72
2022-10-26T04:38:40.872Z,8.10
2022-10-26T04:41:07.729Z,7.75
2022-10-26T04:43:34.588Z,7.03
2022-10-26T04:46:01.369Z,4.10
2022-10-26T04:48:28.174Z,6.43
2022-10-26T04:50:54.875Z,7.82
2022-10-26T04:53:21.591Z,9.45
2022-10-26T04:55:48.343Z,6.28
2022-10-26T04:58:15.096Z,8.77
2022-10-26T05:00:41.835Z,10.55
2022-10-26T05:03:09.848Z,16.98
2022-10-26T05:05:37.678Z,5.35
2022-10-26T05:08:04.676Z,8.57
2022-10-26T05:10:31.841Z,5.55
2022-10-26T05:13:00.167Z,7.32
2022-10-26T05:17:59.180Z,7.30
2022-10-26T05:20:31.092Z,4.70
2022-10-26T05:22:59.251Z,5.65
2022-10-26T05:25:26.186Z,9.43
2022-10-26T05:27:57.093Z,6.93
2022-10-26T05:30:23.830Z,8.40
2022-10-26T05:33:02.185Z,4.25
2022-10-26T05:35:29.476Z,8.32
2022-10-26T05:37:56.240Z,7.55
2022-10-26T05:40:23.545Z,9.68
2022-10-26T05:42:51.330Z,8.80
2022-10-26T05:45:18.459Z,6.63
2022-10-26T05:47:46.008Z,14.38
2022-10-26T05:50:13.603Z,9.27
2022-10-26T05:52:44.651Z,12.63
2022-10-26T05:55:13.365Z,10.55
2022-10-26T05:57:40.812Z,12.20
2022-10-26T06:00:10.106Z,10.30
2022-10-26T06:02:59.113Z,9.15
2022-10-26T06:05:28.699Z,8.82
2022-10-26T06:07:55.880Z,7.60
2022-10-26T06:10:22.966Z,11.43
2022-10-26T06:12:50.390Z,10.25
2022-10-26T06:15:20.272Z,7.25
2022-10-26T06:17:54.020Z,9.55
2022-10-26T06:20:32.500Z,9.07
2022-10-26T06:23:09.847Z,12.75
2022-10-26T06:25:39.585Z,9.32
2022-10-26T06:28:33.676Z,14.05
2022-10-26T06:31:00.407Z,6.10
2022-10-26T06:33:29.966Z,5.57
2022-10-26T06:36:06.907Z,4.70
2022-10-26T06:38:35.375Z,9.80
2022-10-26T06:41:02.247Z,4.75
2022-10-26T06:43:34.239Z,5.55
2022-10-26T06:46:22.224Z,5.75
2022-10-26T06:49:08.996Z,11.98
2022-10-26T06:51:59.518Z,6.03
2022-10-26T06:54:41.708Z,9.20
2022-10-26T06:57:10.397Z,10.82
2022-10-26T06:59:45.243Z,4.88
2022-10-26T07:02:12.689Z,4.75
2022-10-26T07:04:39.547Z,7.80
2022-10-26T07:07:06.468Z,4.40
2022-10-26T07:09:33.226Z,4.80
2022-10-26T07:12:00.119Z,6.43
2022-10-26T07:14:26.951Z,6.32
2022-10-26T07:16:54.504Z,9.07
2022-10-26T07:19:21.254Z,8.88
2022-10-26T07:21:48.030Z,6.20
2022-10-26T07:24:14.971Z,4.32
2022-10-26T07:26:41.699Z,7.05
2022-10-26T07:29:08.433Z,5.50
2022-10-26T07:31:35.172Z,4.28
2022-10-26T07:34:02.716Z,5.45
2022-10-26T07:36:29.584Z,7.40
2022-10-26T07:38:56.382Z,10.45
2022-10-26T07:41:23.145Z,11.50
2022-10-26T07:43:50.855Z,7.03
2022-10-26T07:46:18.462Z,7.78
2022-10-26T07:51:12.112Z,6.22
2022-10-26T07:53:38.875Z,6.40
2022-10-26T07:56:06.062Z,8.15
2022-10-26T07:58:32.960Z,7.78
2022-10-26T08:01:07.024Z,6.95
2022-10-26T08:03:33.878Z,8.25
2022-10-26T08:06:00.783Z,4.30
2022-10-26T08:08:27.932Z,6.10
2022-10-26T08:10:54.679Z,7.47
2022-10-26T08:13:21.370Z,6.40
2022-10-26T08:15:48.116Z,6.55
2022-10-26T08:18:15.133Z,6.95
2022-10-26T08:20:42.075Z,4.72
2022-10-26T08:23:08.843Z,6.93
2022-10-26T08:25:35.642Z,4.15
2022-10-26T08:28:03.231Z,4.20
2022-10-26T08:30:31.450Z,6.22
2022-10-26T08:32:59.798Z,5.53
2022-10-26T08:35:26.750Z,6.53
2022-10-26T08:37:53.821Z,7.43
2022-10-26T08:40:24.855Z,6.13
2022-10-26T08:42:56.384Z,4.18
2022-10-26T08:45:30.531Z,6.82
2022-10-26T08:48:02.082Z,5.47
2022-10-26T08:50:42.997Z,6.43
2022-10-26T08:53:20.742Z,4.88
2022-10-26T08:55:51.525Z,6.05
2022-10-26T08:58:22.100Z,7.35
2022-10-26T09:00:50.121Z,7.50
2022-10-26T09:03:18.617Z,6.03
2022-10-26T09:05:54.284Z,6.97
2022-10-26T09:08:39.059Z,4.22
2022-10-26T09:11:19.639Z,4.88
2022-10-26T09:14:00.049Z,7.45
2022-10-26T09:16:51.417Z,5.32
2022-10-26T09:19:42.972Z,6.50
2022-10-26T09:22:48.436Z,5.03
2022-10-26T09:25:23.330Z,4.00
2022-10-26T09:28:01.457Z,3.95
2022-10-26T09:30:30.360Z,1.77
2022-10-26T09:33:04.275Z,2.42
2022-10-26T09:38:15.956Z,3.60
2022-10-26T09:40:55.136Z,3.75
2022-10-26T09:46:45.360Z,4.72
2022-10-26T09:49:14.132Z,3.72
2022-10-26T09:51:43.091Z,11.52
2022-10-26T09:54:16.200Z,1.80
2022-10-26T09:56:45.393Z,5.43
2022-10-26T09:59:12.454Z,8.75
2022-10-26T10:01:41.512Z,1.52
2022-10-26T10:04:20.435Z,4.78
2022-10-26T10:07:08.465Z,3.58
2022-10-26T10:09:35.212Z,2.78
2022-10-26T10:12:03.810Z,4.13
2022-10-26T10:14:36.158Z,3.20
2022-10-26T10:17:10.875Z,8.90
2022-10-26T10:19:38.778Z,4.72
2022-10-26T10:22:09.470Z,2.80
2022-10-26T10:24:38.167Z,3.05
2022-10-26T10:27:18.556Z,3.63
2022-10-26T10:29:51.207Z,5.45
2022-10-26T10:32:30.457Z,3.45
2022-10-26T10:34:58.719Z,3.60
2022-10-26T10:37:44.286Z,4.95
2022-10-26T10:40:19.419Z,6.35
2022-10-26T10:42:47.498Z,7.10
2022-10-26T10:45:21.272Z,3.45
2022-10-26T10:48:12.529Z,2.78
2022-10-26T10:50:51.825Z,2.83
2022-10-26T10:53:23.664Z,3.00
2022-10-26T10:56:22.386Z,3.08
2022-10-26T10:59:10.662Z,4.05
2022-10-26T11:01:48.999Z,6.55
2022-10-26T11:04:41.207Z,3.15
2022-10-26T11:07:10.046Z,5.63
2022-10-26T11:09:40.546Z,2.92
2022-10-26T11:12:13.683Z,6.53
2022-10-26T11:14:48.866Z,5.05
2022-10-26T11:17:30.218Z,3.95
2022-10-26T11:20:00.947Z,3.92
2022-10-26T11:22:30.987Z,3.38
2022-10-26T11:25:13.503Z,3.83
2022-10-26T11:27:46.174Z,3.70
2022-10-26T11:30:20.419Z,7.13
2022-10-26T11:32:52.457Z,1.95
2022-10-26T11:35:26.918Z,3.60
2022-10-26T11:38:45.609Z,3.97
2022-10-26T11:43:49.540Z,2.08
2022-10-26T11:46:32.432Z,2.97
2022-10-26T11:49:05.852Z,3.97
2022-10-26T11:51:42.411Z,4.25
2022-10-26T11:54:35.049Z,2.42
2022-10-26T11:57:02.531Z,3.90
2022-10-26T11:59:33.278Z,1.92
2022-10-26T12:02:40.332Z,3.22
2022-10-26T12:05:16.324Z,4.15
2022-10-26T12:07:58.953Z,2.35
2022-10-26T12:10:37.914Z,4.85
2022-10-26T12:13:43.112Z,1.90
2022-10-26T12:16:40.769Z,1.33
2022-10-26T12:19:14.697Z,2.22
2022-10-26T12:21:43.945Z,1.40
2022-10-26T12:24:22.532Z,2.88
2022-10-26T12:27:30.557Z,4.10
2022-10-26T12:30:23.557Z,0.82
2022-10-26T12:33:14.709Z,2.65
2022-10-26T12:35:44.938Z,2.45
2022-10-26T12:38:23.825Z,2.45
2022-10-26T12:41:08.578Z,2.30
2022-10-26T12:43:39.108Z,1.17
2022-10-26T12:46:14.932Z,2.03
2022-10-26T12:48:45.574Z,3.95
2022-10-26T12:51:21.845Z,2.17
2022-10-26T12:54:23.768Z,2.20
2022-10-26T12:56:52.512Z,1.65
2022-10-26T12:59:22.344Z,2.03
2022-10-26T13:02:10.339Z,1.95
2022-10-26T13:04:37.008Z,1.00
2022-10-26T13:07:21.107Z,3.15
2022-10-26T13:10:04.315Z,2.63
2022-10-26T13:12:57.766Z,0.60
2022-10-26T13:15:30.310Z,3.63
2022-10-26T13:18:06.219Z,0.68
2022-10-26T13:20:35.084Z,0.95
2022-10-26T13:23:03.488Z,2.28
2022-10-26T13:25:31.528Z,2.33
2022-10-26T13:28:02.267Z,2.17
2022-10-26T13:30:38.703Z,0.55
2022-10-26T13:33:11.372Z,1.55
2022-10-26T13:35:40.398Z,1.88
2022-10-26T13:38:11.056Z,1.58
2022-10-26T13:40:38.690Z,2.10
2022-10-26T13:43:07.711Z,1.50
2022-10-26T13:45:40.623Z,1.13
2022-10-26T13:48:24.774Z,1.20
2022-10-26T13:53:50.814Z,0.95
2022-10-26T13:57:10.182Z,0.90
2022-10-26T13:59:39.707Z,3.75
2022-10-26T14:02:18.962Z,2.53
2022-10-26T14:04:47.843Z,2.25
2022-10-26T14:07:18.367Z,1.95
2022-10-26T14:09:50.456Z,1.80
2022-10-26T14:12:17.459Z,2.25
2022-10-26T14:14:44.183Z,1.88
2022-10-26T14:17:22.784Z,1.17
2022-10-26T14:19:49.917Z,1.85
2022-10-26T14:22:27.965Z,0.85
2022-10-26T14:24:56.855Z,1.05
2022-10-26T14:27:32.311Z,1.23
2022-10-26T14:32:47.547Z,2.22
2022-10-26T14:35:14.799Z,2.22
2022-10-26T14:38:00.530Z,2.65
2022-10-26T14:40:29.587Z,1.95
2022-10-26T14:42:58.542Z,1.55
2022-10-26T14:45:48.136Z,4.03
2022-10-26T14:48:35.972Z,1.42
2022-10-26T14:53:50.876Z,3.10
2022-10-26T14:56:35.785Z,5.20
2022-10-26T14:59:22.541Z,1.50
2022-10-26T15:01:52.200Z,3.22
2022-10-26T15:04:42.888Z,3.78
2022-10-26T15:07:12.641Z,3.42
2022-10-26T15:09:47.642Z,4.05
2022-10-26T15:12:33.645Z,5.50
2022-10-26T15:15:07.518Z,4.70
2022-10-26T15:17:38.320Z,4.15
2022-10-26T15:20:07.489Z,4.85
2022-10-26T15:22:34.576Z,3.40
2022-10-26T15:25:05.989Z,4.93
2022-10-26T15:27:32.966Z,4.68
2022-10-26T15:30:22.310Z,2.20
2022-10-26T15:32:49.656Z,3.45
2022-10-26T15:35:20.038Z,5.30
2022-10-26T15:37:47.822Z,3.55
2022-10-26T15:40:15.507Z,6.55
2022-10-26T15:42:42.976Z,7.20
2022-10-26T15:45:17.680Z,9.70
2022-10-26T15:47:44.778Z,7.22
2022-10-26T15:50:19.640Z,6.60
2022-10-26T15:52:49.113Z,9.82
2022-10-26T15:55:17.730Z,7.85
2022-10-26T15:57:44.758Z,14.27
2022-10-26T16:00:15.978Z,7.18
2022-10-26T16:02:44.487Z,4.10
2022-10-26T16:05:16.238Z,4.32
2022-10-26T16:07:44.766Z,5.05
2022-10-26T16:10:21.871Z,4.65
2022-10-26T16:12:50.361Z,2.25
2022-10-26T16:15:24.770Z,1.80
2022-10-26T16:17:52.192Z,2.85
2022-10-26T16:20:22.945Z,2.45
2022-10-26T16:22:51.238Z,1.55
2022-10-26T16:25:22.992Z,2.55
2022-10-26T16:27:50.426Z,1.25
2022-10-26T16:30:19.809Z,2.00
2022-10-26T16:32:47.257Z,1.27
2022-10-26T16:35:14.483Z,3.63
2022-10-26T16:37:41.333Z,2.47
2022-10-26T16:40:09.023Z,1.35
2022-10-26T16:42:36.034Z,2.90
2022-10-26T16:45:03.402Z,3.15
2022-10-26T16:47:35.611Z,2.67
2022-10-26T16:50:03.868Z,4.68
2022-10-26T16:52:30.800Z,5.03
2022-10-26T16:54:57.602Z,4.63
2022-10-26T16:57:24.459Z,2.90
2022-10-26T16:59:51.333Z,2.20
2022-10-26T17:02:18.267Z,3.22
2022-10-26T17:04:45.136Z,3.35
2022-10-26T17:07:12.023Z,3.15
2022-10-26T17:09:38.859Z,4.90
2022-10-26T17:12:06.171Z,4.40
2022-10-26T17:14:32.960Z,5.00
2022-10-26T17:16:59.759Z,4.18
2022-10-26T17:19:26.509Z,4.75
2022-10-26T17:21:53.305Z,4.13
2022-10-26T17:24:20.197Z,2.20
2022-10-26T17:26:46.977Z,1.63
2022-10-26T17:29:13.884Z,3.92
2022-10-26T17:31:41.195Z,2.50
2022-10-26T17:34:08.015Z,4.10
2022-10-26T17:36:34.994Z,3.75
2022-10-26T17:39:01.912Z,5.40
2022-10-26T17:41:28.858Z,3.85
2022-10-26T17:43:55.713Z,5.93
2022-10-26T17:46:24.821Z,3.95
2022-10-26T17:48:56.364Z,2.88
2022-10-26T17:51:23.545Z,3.60
2022-10-26T17:53:51.049Z,6.20
2022-10-26T17:56:23.441Z,4.75
2022-10-26T17:58:58.180Z,4.30
2022-10-26T18:01:25.830Z,4.32
2022-10-26T18:03:52.787Z,4.70
2022-10-26T18:06:20.485Z,4.93
2022-10-26T18:08:47.398Z,9.05
2022-10-26T18:11:19.102Z,8.75
2022-10-26T18:13:48.438Z,8.05
2022-10-26T18:16:17.520Z,4.25
2022-10-26T18:18:46.522Z,2.92
2022-10-26T18:21:15.194Z,4.38
2022-10-26T18:23:42.546Z,3.25
2022-10-26T18:26:18.099Z,3.80
2022-10-26T18:28:45.430Z,3.38
2022-10-26T18:31:18.703Z,3.15
2022-10-26T18:33:45.450Z,3.50
2022-10-26T18:36:14.554Z,4.78
2022-10-26T18:38:41.593Z,4.43
2022-10-26T18:41:10.651Z,6.72
2022-10-26T18:43:41.422Z,3.20
2022-10-26T18:46:19.184Z,4.25
2022-10-26T18:48:48.253Z,5.47
2022-10-26T18:51:17.185Z,5.57
2022-10-26T18:53:44.827Z,7.88
2022-10-26T18:56:21.940Z,5.43
2022-10-26T18:58:50.700Z,4.20
2022-10-26T19:01:22.595Z,4.10
2022-10-26T19:03:54.423Z,2.90
2022-10-26T19:06:31.961Z,3.92
2022-10-26T19:08:59.073Z,3.90
2022-10-26T19:11:27.625Z,8.60
2022-10-26T19:13:54.748Z,4.35
2022-10-26T19:16:45.781Z,4.85
2022-10-26T19:19:12.802Z,4.95
2022-10-26T19:21:39.664Z,3.88
2022-10-26T19:24:11.876Z,5.30
2022-10-26T19:26:42.396Z,6.18
2022-10-26T19:29:17.293Z,7.82
2022-10-26T19:31:45.205Z,10.70
2022-10-26T19:34:13.125Z,7.55
2022-10-26T19:36:44.731Z,8.45
2022-10-26T19:39:15.539Z,4.75
2022-10-26T19:41:43.307Z,7.00
2022-10-26T19:44:11.076Z,8.77
2022-10-26T19:46:38.150Z,6.28
2022-10-26T19:49:05.292Z,6.80
2022-10-26T19:51:32.778Z,8.27
2022-10-26T19:54:03.489Z,5.32
2022-10-26T19:56:32.482Z,6.97
2022-10-26T19:58:59.379Z,3.47
2022-10-26T20:01:26.283Z,4.40
2022-10-26T20:03:53.123Z,2.50
2022-10-26T20:06:19.993Z,2.97
2022-10-26T20:08:48.558Z,3.53
2022-10-26T20:11:16.822Z,4.10
2022-10-26T20:13:45.302Z,6.97
2022-10-26T20:18:42.654Z,3.55
2022-10-26T20:21:16.141Z,5.25
2022-10-26T20:23:43.411Z,3.33
2022-10-26T20:26:11.856Z,3.83
2022-10-26T20:28:47.443Z,2.63
2022-10-26T20:31:14.197Z,4.15
2022-10-26T20:33:40.972Z,2.45
2022-10-26T20:36:07.954Z,4.40
2022-10-26T20:38:35.047Z,4.45
2022-10-26T20:41:06.181Z,4.78
2022-10-26T20:43:38.987Z,3.97
2022-10-26T20:46:06.911Z,5.00
2022-10-26T20:48:34.158Z,6.55
2022-10-26T20:51:05.733Z,4.90
2022-10-26T20:53:36.088Z,3.72
2022-10-26T20:56:06.366Z,4.18
2022-10-26T20:58:39.117Z,6.82
2022-10-26T21:01:27.642Z,4.82
2022-10-26T21:03:56.055Z,5.43
2022-10-26T21:06:23.639Z,3.03
2022-10-26T21:08:51.880Z,2.92
2022-10-26T21:11:19.566Z,3.80
2022-10-26T21:13:47.840Z,3.10
2022-10-26T21:16:15.388Z,3.28
2022-10-26T21:18:42.389Z,2.80
2022-10-26T21:21:09.630Z,3.00
2022-10-26T21:23:38.385Z,4.15
2022-10-26T21:26:05.541Z,2.72
2022-10-26T21:28:46.751Z,3.38
2022-10-26T21:31:18.466Z,3.03
2022-10-26T21:33:46.339Z,1.95
2022-10-26T21:36:14.101Z,2.15
2022-10-26T21:38:42.675Z,1.65
2022-10-26T21:41:19.285Z,4.35
2022-10-26T21:43:48.260Z,2.65
2022-10-26T21:46:16.144Z,3.83
2022-10-26T21:48:43.393Z,2.05
2022-10-26T21:51:15.792Z,5.00
2022-10-26T21:53:42.942Z,3.72
2022-10-26T21:56:14.961Z,4.15
2022-10-26T21:58:41.878Z,2.00
2022-10-26T22:01:11.097Z,4.68
2022-10-26T22:03:38.482Z,2.80
2022-10-26T22:06:06.497Z,2.15
2022-10-26T22:08:33.468Z,2.65
2022-10-26T22:11:18.485Z,3.38
2022-10-26T22:13:46.039Z,3.42
2022-10-26T22:16:17.184Z,5.53
2022-10-26T22:18:45.303Z,1.83
2022-10-26T22:21:13.181Z,2.60
2022-10-26T22:23:41.299Z,3.92
2022-10-26T22:26:19.245Z,1.75
2022-10-26T22:28:47.426Z,2.50
2022-10-26T22:31:26.570Z,4.75
2022-10-26T22:33:54.894Z,4.78
2022-10-26T22:36:22.321Z,2.22
2022-10-26T22:38:50.315Z,1.63
2022-10-26T22:41:18.143Z,2.20
2022-10-26T22:43:44.937Z,1.70
2022-10-26T22:46:20.205Z,1.40
2022-10-26T22:48:47.210Z,1.80
2022-10-26T22:51:19.804Z,4.15
2022-10-26T22:53:49.261Z,1.33
2022-10-26T22:56:16.872Z,2.35
2022-10-26T22:58:43.609Z,1.17
2022-10-26T23:01:13.134Z,2.78
2022-10-26T23:03:40.444Z,1.88
2022-10-26T23:06:08.685Z,2.55
2022-10-26T23:08:35.544Z,3.30
2022-10-26T23:11:04.468Z,2.50
2022-10-26T23:13:31.471Z,3.35
2022-10-26T23:16:08.140Z,2.60
2022-10-26T23:18:35.410Z,1.85
2022-10-26T23:21:03.328Z,2.08
2022-10-26T23:23:30.189Z,2.50
2022-10-26T23:26:01.372Z,2.50
2022-10-26T23:28:28.281Z,1.80
2022-10-26T23:30:55.062Z,1.52
2022-10-26T23:33:21.784Z,2.05
2022-10-26T23:35:50.558Z,1.92
2022-10-26T23:38:17.679Z,2.30
2022-10-26T23:40:56.898Z,3.80
2022-10-26T23:43:23.932Z,1.98
2022-10-26T23:45:51.001Z,2.00
2022-10-26T23:48:19.359Z,2.22
2022-10-26T23:50:47.310Z,3.38
2022-10-26T23:53:15.051Z,4.00
2022-10-26T23:55:44.032Z,3.92
2022-10-26T23:58:11.349Z,2.97
